createdAt,value
2018-04-20T00:00:47.168Z,1014.49
2018-04-20T00:01:52.650Z,1014.48
2018-04-20T00:02:58.168Z,1014.50
2018-04-20T00:04:03.687Z,1014.48
2018-04-20T00:05:09.199Z,1014.50
2018-04-20T00:06:14.716Z,1014.48
2018-04-20T00:07:20.228Z,1014.49
2018-04-20T00:08:25.745Z,1014.46
2018-04-20T00:09:31.258Z,1014.45
2018-04-20T00:10:36.773Z,1014.46
2018-04-20T00:11:42.288Z,1014.42
2018-04-20T00:12:47.809Z,1014.44
2018-04-20T00:13:53.318Z,1014.42
2018-04-20T00:14:58.838Z,1014.42
2018-04-20T00:16:04.369Z,1014.44
2018-04-20T00:17:09.869Z,1014.42
2018-04-20T00:18:15.387Z,1014.39
2018-04-20T00:19:20.903Z,1014.35
2018-04-20T00:20:26.416Z,1014.41
2018-04-20T00:21:31.927Z,1014.39
2018-04-20T00:22:37.442Z,1014.39
2018-04-20T00:23:42.958Z,1014.38
2018-04-20T00:24:48.472Z,1014.37
2018-04-20T00:25:53.988Z,1014.37
2018-04-20T00:26:59.504Z,1014.35
2018-04-20T00:28:05.023Z,1014.34
2018-04-20T00:29:10.538Z,1014.35
2018-04-20T00:30:16.056Z,1014.28
2018-04-20T00:31:21.563Z,1014.28
2018-04-20T00:32:27.080Z,1014.29
2018-04-20T00:33:32.597Z,1014.29
2018-04-20T00:34:38.118Z,1014.28
2018-04-20T00:35:43.626Z,1014.28
2018-04-20T00:36:49.140Z,1014.25
2018-04-20T00:37:54.660Z,1014.26
2018-04-20T00:39:00.176Z,1014.27
2018-04-20T00:40:05.685Z,1014.24
2018-04-20T00:41:11.205Z,1014.24
2018-04-20T00:42:16.720Z,1014.24
2018-04-20T00:43:22.229Z,1014.21
2018-04-20T00:44:27.753Z,1014.23
2018-04-20T00:45:33.262Z,1014.23
2018-04-20T00:46:38.837Z,1014.18
2018-04-20T00:47:44.294Z,1014.17
2018-04-20T00:48:49.820Z,1014.18
2018-04-20T00:49:55.329Z,1014.15
2018-04-20T00:51:00.841Z,1014.13
2018-04-20T00:52:06.354Z,1014.14
2018-04-20T00:53:11.872Z,1014.07
2018-04-20T00:54:17.384Z,1014.08
2018-04-20T00:55:22.904Z,1014.05
2018-04-20T00:56:28.417Z,1014.05
2018-04-20T00:57:33.930Z,1014.06
2018-04-20T00:58:39.448Z,1014.02
2018-04-20T00:59:44.960Z,1014.02
2018-04-20T01:00:50.482Z,1014.02
2018-04-20T01:01:55.995Z,1014.00
2018-04-20T01:03:01.507Z,1014.01
2018-04-20T01:04:07.027Z,1013.97
2018-04-20T01:05:12.538Z,1014.00
2018-04-20T01:06:18.056Z,1014.00
2018-04-20T01:07:23.571Z,1013.99
2018-04-20T01:08:29.085Z,1013.98
2018-04-20T01:09:34.593Z,1013.94
2018-04-20T01:10:40.109Z,1013.95
2018-04-20T01:11:45.627Z,1013.93
2018-04-20T01:12:51.140Z,1013.91
2018-04-20T01:13:56.681Z,1013.92
2018-04-20T01:15:02.186Z,1013.89
2018-04-20T01:16:07.693Z,1013.88
2018-04-20T01:17:13.199Z,1013.86
2018-04-20T01:18:18.710Z,1013.82
2018-04-20T01:19:24.238Z,1013.85
2018-04-20T01:20:29.742Z,1013.84
2018-04-20T01:21:35.271Z,1013.85
2018-04-20T01:22:40.776Z,1013.85
2018-04-20T01:23:46.290Z,1013.81
2018-04-20T01:24:51.807Z,1013.83
2018-04-20T01:25:57.320Z,1013.82
2018-04-20T01:27:02.832Z,1013.81
2018-04-20T01:28:08.343Z,1013.84
2018-04-20T01:29:13.865Z,1013.82
2018-04-20T01:30:19.376Z,1013.82
2018-04-20T01:31:24.890Z,1013.82
2018-04-20T01:32:30.409Z,1013.79
2018-04-20T01:33:35.922Z,1013.79
2018-04-20T01:34:41.443Z,1013.77
2018-04-20T01:35:46.950Z,1013.78
2018-04-20T01:36:52.468Z,1013.79
2018-04-20T01:37:57.976Z,1013.79
2018-04-20T01:39:03.492Z,1013.79
2018-04-20T01:40:09.075Z,1013.78
2018-04-20T01:41:14.621Z,1013.79
2018-04-20T01:42:20.038Z,1013.78
2018-04-20T01:43:25.552Z,1013.77
2018-04-20T01:44:31.073Z,1013.78
2018-04-20T01:45:36.580Z,1013.77
2018-04-20T01:46:42.097Z,1013.76
2018-04-20T01:47:47.607Z,1013.80
2018-04-20T01:48:53.122Z,1013.76
2018-04-20T01:49:58.635Z,1013.78
2018-04-20T01:51:04.152Z,1013.80
2018-04-20T01:52:09.668Z,1013.80
2018-04-20T01:53:15.182Z,1013.79
2018-04-20T01:54:20.694Z,1013.81
2018-04-20T01:55:26.214Z,1013.78
2018-04-20T01:56:31.733Z,1013.77
2018-04-20T01:57:37.242Z,1013.77
2018-04-20T01:58:42.754Z,1013.76
2018-04-20T01:59:48.316Z,1013.72
2018-04-20T02:00:53.789Z,1013.71
2018-04-20T02:01:59.305Z,1013.69
2018-04-20T02:03:04.809Z,1013.72
2018-04-20T02:04:10.330Z,1013.70
2018-04-20T02:05:15.843Z,1013.71
2018-04-20T02:06:21.353Z,1013.70
2018-04-20T02:07:26.867Z,1013.65
2018-04-20T02:08:32.389Z,1013.68
2018-04-20T02:09:37.897Z,1013.66
2018-04-20T02:10:43.415Z,1013.67
2018-04-20T02:11:48.928Z,1013.66
2018-04-20T02:12:54.442Z,1013.65
2018-04-20T02:13:59.969Z,1013.63
2018-04-20T02:15:05.470Z,1013.63
2018-04-20T02:16:10.988Z,1013.62
2018-04-20T02:17:16.507Z,1013.65
2018-04-20T02:18:22.017Z,1013.61
2018-04-20T02:19:27.536Z,1013.62
2018-04-20T02:20:33.047Z,1013.60
2018-04-20T02:21:38.568Z,1013.63
2018-04-20T02:22:44.079Z,1013.63
2018-04-20T02:23:49.585Z,1013.56
2018-04-20T02:24:55.114Z,1013.60
2018-04-20T02:26:00.617Z,1013.59
2018-04-20T02:27:06.130Z,1013.61
2018-04-20T02:28:11.642Z,1013.59
2018-04-20T02:29:17.173Z,1013.57
2018-04-20T02:30:22.679Z,1013.58
2018-04-20T02:31:28.192Z,1013.56
2018-04-20T02:32:33.706Z,1013.53
2018-04-20T02:33:39.221Z,1013.62
2018-04-20T02:34:44.733Z,1013.57
2018-04-20T02:35:50.248Z,1013.55
2018-04-20T02:36:55.765Z,1013.59
2018-04-20T02:38:01.280Z,1013.51
2018-04-20T02:39:06.794Z,1013.52
2018-04-20T02:40:12.312Z,1013.51
2018-04-20T02:41:17.820Z,1013.53
2018-04-20T02:42:23.342Z,1013.51
2018-04-20T02:43:28.850Z,1013.52
2018-04-20T02:44:34.368Z,1013.51
2018-04-20T02:45:39.879Z,1013.53
2018-04-20T02:46:45.399Z,1013.52
2018-04-20T02:47:50.967Z,1013.52
2018-04-20T02:48:56.427Z,1013.51
2018-04-20T02:50:01.947Z,1013.53
2018-04-20T02:51:07.454Z,1013.53
2018-04-20T02:52:12.967Z,1013.52
2018-04-20T02:53:18.485Z,1013.51
2018-04-20T02:54:24.002Z,1013.51
2018-04-20T02:55:29.508Z,1013.49
2018-04-20T02:56:35.033Z,1013.51
2018-04-20T02:57:40.540Z,1013.53
2018-04-20T02:58:46.054Z,1013.48
2018-04-20T02:59:51.567Z,1013.52
2018-04-20T03:00:57.088Z,1013.49
2018-04-20T03:02:02.601Z,1013.45
2018-04-20T03:03:08.110Z,1013.49
2018-04-20T03:04:13.631Z,1013.45
2018-04-20T03:05:19.139Z,1013.44
2018-04-20T03:06:24.664Z,1013.47
2018-04-20T03:07:30.171Z,1013.40
2018-04-20T03:08:35.688Z,1013.41
2018-04-20T03:09:41.196Z,1013.42
2018-04-20T03:10:46.711Z,1013.36
2018-04-20T03:11:52.229Z,1013.37
2018-04-20T03:12:57.744Z,1013.41
2018-04-20T03:14:03.257Z,1013.37
2018-04-20T03:15:08.768Z,1013.37
2018-04-20T03:16:14.282Z,1013.38
2018-04-20T03:17:19.798Z,1013.35
2018-04-20T03:18:25.313Z,1013.33
2018-04-20T03:19:30.836Z,1013.30
2018-04-20T03:20:36.347Z,1013.30
2018-04-20T03:21:41.854Z,1013.29
2018-04-20T03:22:47.373Z,1013.31
2018-04-20T03:23:52.888Z,1013.30
2018-04-20T03:24:58.400Z,1013.33
2018-04-20T03:26:03.911Z,1013.27
2018-04-20T03:27:09.431Z,1013.30
2018-04-20T03:28:14.940Z,1013.28
2018-04-20T03:29:20.455Z,1013.25
2018-04-20T03:30:25.971Z,1013.25
2018-04-20T03:31:31.488Z,1013.24
2018-04-20T03:32:37.002Z,1013.23
2018-04-20T03:33:42.512Z,1013.23
2018-04-20T03:34:48.027Z,1013.18
2018-04-20T03:35:53.550Z,1013.15
2018-04-20T03:36:59.055Z,1013.17
2018-04-20T03:38:04.580Z,1013.18
2018-04-20T03:39:10.091Z,1013.21
2018-04-20T03:40:15.601Z,1013.18
2018-04-20T03:41:21.115Z,1013.19
2018-04-20T03:42:26.630Z,1013.19
2018-04-20T03:43:32.148Z,1013.23
2018-04-20T03:44:37.658Z,1013.18
2018-04-20T03:45:43.170Z,1013.16
2018-04-20T03:46:48.685Z,1013.24
2018-04-20T03:47:54.201Z,1013.23
2018-04-20T03:48:59.716Z,1013.27
2018-04-20T03:50:05.368Z,1013.28
2018-04-20T03:51:10.747Z,1013.31
2018-04-20T03:52:16.298Z,1013.35
2018-04-20T03:53:21.773Z,1013.31
2018-04-20T03:54:27.289Z,1013.32
2018-04-20T03:55:32.797Z,1013.28
2018-04-20T03:56:38.318Z,1013.27
2018-04-20T03:57:43.834Z,1013.26
2018-04-20T03:58:49.343Z,1013.24
2018-04-20T03:59:54.856Z,1013.22
2018-04-20T04:01:00.368Z,1013.22
2018-04-20T04:02:05.893Z,1013.26
2018-04-20T04:03:11.398Z,1013.25
2018-04-20T04:04:16.917Z,1013.26
2018-04-20T04:05:22.428Z,1013.27
2018-04-20T04:06:27.940Z,1013.25
2018-04-20T04:07:33.456Z,1013.24
2018-04-20T04:08:38.973Z,1013.24
2018-04-20T04:09:44.483Z,1013.24
2018-04-20T04:10:50.042Z,1013.22
2018-04-20T04:11:55.515Z,1013.22
2018-04-20T04:13:01.028Z,1013.19
2018-04-20T04:14:06.542Z,1013.22
2018-04-20T04:15:12.059Z,1013.22
2018-04-20T04:16:17.572Z,1013.21
2018-04-20T04:17:23.084Z,1013.18
2018-04-20T04:18:28.596Z,1013.20
2018-04-20T04:19:34.116Z,1013.24
2018-04-20T04:20:39.676Z,1013.20
2018-04-20T04:21:45.145Z,1013.22
2018-04-20T04:22:50.662Z,1013.18
2018-04-20T04:23:56.169Z,1013.24
2018-04-20T04:25:01.687Z,1013.20
2018-04-20T04:26:07.201Z,1013.16
2018-04-20T04:27:12.718Z,1013.18
2018-04-20T04:28:18.235Z,1013.17
2018-04-20T04:29:23.741Z,1013.17
2018-04-20T04:30:29.256Z,1013.17
2018-04-20T04:31:34.768Z,1013.19
2018-04-20T04:32:40.289Z,1013.15
2018-04-20T04:33:45.801Z,1013.19
2018-04-20T04:34:51.312Z,1013.15
2018-04-20T04:35:56.828Z,1013.19
2018-04-20T04:37:02.350Z,1013.19
2018-04-20T04:38:07.860Z,1013.20
2018-04-20T04:39:13.367Z,1013.19
2018-04-20T04:40:18.881Z,1013.18
2018-04-20T04:41:24.398Z,1013.21
2018-04-20T04:42:29.915Z,1013.18
2018-04-20T04:43:35.437Z,1013.16
2018-04-20T04:44:40.939Z,1013.13
2018-04-20T04:45:46.460Z,1013.18
2018-04-20T04:46:51.970Z,1013.21
2018-04-20T04:47:57.567Z,1013.21
2018-04-20T04:49:02.998Z,1013.22
2018-04-20T04:50:08.511Z,1013.18
2018-04-20T04:51:14.025Z,1013.14
2018-04-20T04:52:19.540Z,1013.15
2018-04-20T04:53:25.062Z,1013.15
2018-04-20T04:54:30.567Z,1013.11
2018-04-20T04:55:36.147Z,1013.14
2018-04-20T04:56:41.598Z,1013.11
2018-04-20T04:57:47.108Z,1013.13
2018-04-20T04:58:52.623Z,1013.11
2018-04-20T04:59:58.135Z,1013.11
2018-04-20T05:01:03.655Z,1013.13
2018-04-20T05:02:09.178Z,1013.12
2018-04-20T05:03:14.680Z,1013.13
2018-04-20T05:04:20.194Z,1013.15
2018-04-20T05:05:25.716Z,1013.11
2018-04-20T05:06:31.231Z,1013.15
2018-04-20T05:07:36.742Z,1013.16
2018-04-20T05:08:42.250Z,1013.17
2018-04-20T05:09:47.766Z,1013.17
2018-04-20T05:10:53.282Z,1013.16
2018-04-20T05:11:58.791Z,1013.16
2018-04-20T05:13:04.310Z,1013.14
2018-04-20T05:14:09.829Z,1013.14
2018-04-20T05:15:15.345Z,1013.13
2018-04-20T05:16:20.852Z,1013.16
2018-04-20T05:17:26.367Z,1013.13
2018-04-20T05:18:31.886Z,1013.13
2018-04-20T05:19:37.393Z,1013.18
2018-04-20T05:20:42.906Z,1013.19
2018-04-20T05:21:48.427Z,1013.19
2018-04-20T05:22:53.935Z,1013.20
2018-04-20T05:23:59.448Z,1013.24
2018-04-20T05:25:04.963Z,1013.26
2018-04-20T05:26:10.483Z,1013.23
2018-04-20T05:27:15.992Z,1013.25
2018-04-20T05:28:21.508Z,1013.23
2018-04-20T05:29:27.031Z,1013.25
2018-04-20T05:30:32.538Z,1013.24
2018-04-20T05:31:38.051Z,1013.28
2018-04-20T05:32:43.562Z,1013.28
2018-04-20T05:33:49.090Z,1013.31
2018-04-20T05:34:54.599Z,1013.25
2018-04-20T05:36:00.173Z,1013.26
2018-04-20T05:37:05.618Z,1013.25
2018-04-20T05:38:11.131Z,1013.22
2018-04-20T05:39:16.649Z,1013.24
2018-04-20T05:40:22.162Z,1013.25
2018-04-20T05:41:27.675Z,1013.25
2018-04-20T05:42:33.201Z,1013.27
2018-04-20T05:43:38.707Z,1013.27
2018-04-20T05:44:44.217Z,1013.25
2018-04-20T05:45:49.737Z,1013.27
2018-04-20T05:46:55.245Z,1013.31
2018-04-20T05:48:00.766Z,1013.32
2018-04-20T05:49:06.273Z,1013.31
2018-04-20T05:50:11.791Z,1013.31
2018-04-20T05:51:17.303Z,1013.34
2018-04-20T05:52:22.820Z,1013.31
2018-04-20T05:53:28.335Z,1013.31
2018-04-20T05:54:33.865Z,1013.29
2018-04-20T05:55:39.364Z,1013.28
2018-04-20T05:56:44.880Z,1013.28
2018-04-20T05:57:50.393Z,1013.32
2018-04-20T05:58:55.917Z,1013.34
2018-04-20T06:00:01.435Z,1013.31
2018-04-20T06:01:07.002Z,1013.32
2018-04-20T06:02:12.454Z,1013.34
2018-04-20T06:03:17.968Z,1013.34
2018-04-20T06:04:23.502Z,1013.37
2018-04-20T06:05:28.994Z,1013.37
2018-04-20T06:06:34.515Z,1013.37
2018-04-20T06:07:40.036Z,1013.34
2018-04-20T06:08:45.553Z,1013.36
2018-04-20T06:09:51.060Z,1013.38
2018-04-20T06:10:56.573Z,1013.40
2018-04-20T06:12:02.087Z,1013.34
2018-04-20T06:13:07.607Z,1013.36
2018-04-20T06:14:13.117Z,1013.30
2018-04-20T06:15:18.634Z,1013.33
2018-04-20T06:16:24.148Z,1013.34
2018-04-20T06:17:29.675Z,1013.34
2018-04-20T06:18:35.184Z,1013.31
2018-04-20T06:19:40.709Z,1013.33
2018-04-20T06:20:46.253Z,1013.33
2018-04-20T06:21:51.720Z,1013.34
2018-04-20T06:22:57.238Z,1013.36
2018-04-20T06:24:02.774Z,1013.35
2018-04-20T06:25:08.269Z,1013.34
2018-04-20T06:26:13.784Z,1013.33
2018-04-20T06:27:19.297Z,1013.33
2018-04-20T06:28:24.821Z,1013.29
2018-04-20T06:29:30.344Z,1013.31
2018-04-20T06:30:35.860Z,1013.31
2018-04-20T06:31:41.363Z,1013.29
2018-04-20T06:32:46.888Z,1013.27
2018-04-20T06:33:52.395Z,1013.25
2018-04-20T06:34:57.907Z,1013.25
2018-04-20T06:36:03.427Z,1013.29
2018-04-20T06:37:08.951Z,1013.29
2018-04-20T06:38:14.454Z,1013.26
2018-04-20T06:39:19.973Z,1013.28
2018-04-20T06:40:25.488Z,1013.26
2018-04-20T06:41:31.009Z,1013.28
2018-04-20T06:42:36.521Z,1013.26
2018-04-20T06:43:42.035Z,1013.28
2018-04-20T06:44:47.560Z,1013.24
2018-04-20T06:45:53.069Z,1013.26
2018-04-20T06:46:58.583Z,1013.24
2018-04-20T06:48:04.101Z,1013.25
2018-04-20T06:49:09.618Z,1013.26
2018-04-20T06:50:15.135Z,1013.23
2018-04-20T06:51:20.652Z,1013.23
2018-04-20T06:52:26.169Z,1013.22
2018-04-20T06:53:31.680Z,1013.23
2018-04-20T06:54:37.203Z,1013.24
2018-04-20T06:55:42.716Z,1013.23
2018-04-20T06:56:48.248Z,1013.27
2018-04-20T06:57:53.753Z,1013.24
2018-04-20T06:58:59.268Z,1013.27
2018-04-20T07:00:04.788Z,1013.27
2018-04-20T07:01:10.304Z,1013.26
2018-04-20T07:02:15.826Z,1013.26
2018-04-20T07:03:21.331Z,1013.33
2018-04-20T07:04:26.892Z,1013.34
2018-04-20T07:05:32.363Z,1013.32
2018-04-20T07:06:37.894Z,1013.33
2018-04-20T07:07:43.396Z,1013.40
2018-04-20T07:08:48.916Z,1013.36
2018-04-20T07:09:54.440Z,1013.35
2018-04-20T07:10:59.951Z,1013.34
2018-04-20T07:12:05.550Z,1013.40
2018-04-20T07:13:10.982Z,1013.35
2018-04-20T07:14:16.502Z,1013.38
2018-04-20T07:15:22.017Z,1013.36
2018-04-20T07:16:27.537Z,1013.36
2018-04-20T07:17:33.057Z,1013.38
2018-04-20T07:18:38.577Z,1013.35
2018-04-20T07:19:44.094Z,1013.39
2018-04-20T07:20:49.605Z,1013.36
2018-04-20T07:21:55.122Z,1013.41
2018-04-20T07:23:00.638Z,1013.39
2018-04-20T07:24:06.163Z,1013.37
2018-04-20T07:25:11.674Z,1013.36
2018-04-20T07:26:17.195Z,1013.35
2018-04-20T07:27:22.719Z,1013.36
2018-04-20T07:28:28.231Z,1013.37
2018-04-20T07:29:33.746Z,1013.37
2018-04-20T07:30:39.270Z,1013.35
2018-04-20T07:31:44.786Z,1013.37
2018-04-20T07:32:50.298Z,1013.38
2018-04-20T07:33:55.908Z,1013.37
2018-04-20T07:35:01.454Z,1013.37
2018-04-20T07:36:06.865Z,1013.38
2018-04-20T07:37:12.372Z,1013.37
2018-04-20T07:38:17.892Z,1013.36
2018-04-20T07:39:23.407Z,1013.37
2018-04-20T07:40:28.925Z,1013.35
2018-04-20T07:41:34.518Z,1013.35
2018-04-20T07:42:39.969Z,1013.37
2018-04-20T07:43:45.474Z,1013.36
2018-04-20T07:44:50.992Z,1013.36
2018-04-20T07:45:56.517Z,1013.33
2018-04-20T07:47:02.039Z,1013.36
2018-04-20T07:48:07.549Z,1013.35
2018-04-20T07:49:13.067Z,1013.35
2018-04-20T07:50:18.586Z,1013.33
2018-04-20T07:51:24.109Z,1013.38
2018-04-20T07:52:29.626Z,1013.37
2018-04-20T07:53:35.137Z,1013.36
2018-04-20T07:54:40.658Z,1013.37
2018-04-20T07:55:46.178Z,1013.37
2018-04-20T07:56:51.699Z,1013.35
2018-04-20T07:57:57.213Z,1013.40
2018-04-20T07:59:02.737Z,1013.32
2018-04-20T08:00:08.253Z,1013.34
2018-04-20T08:01:13.771Z,1013.36
2018-04-20T08:02:19.288Z,1013.35
2018-04-20T08:03:24.816Z,1013.38
2018-04-20T08:04:30.406Z,1013.35
2018-04-20T08:05:35.862Z,1013.40
2018-04-20T08:06:41.369Z,1013.37
2018-04-20T08:07:46.898Z,1013.39
2018-04-20T08:08:52.401Z,1013.37
2018-04-20T08:09:57.924Z,1013.40
2018-04-20T08:11:03.442Z,1013.37
2018-04-20T08:12:08.958Z,1013.39
2018-04-20T08:13:14.486Z,1013.43
2018-04-20T08:14:20.018Z,1013.44
2018-04-20T08:15:25.517Z,1013.39
2018-04-20T08:16:31.039Z,1013.42
2018-04-20T08:17:36.553Z,1013.39
2018-04-20T08:18:42.083Z,1013.40
2018-04-20T08:19:47.593Z,1013.40
2018-04-20T08:20:53.111Z,1013.39
2018-04-20T08:21:58.631Z,1013.42
2018-04-20T08:23:04.159Z,1013.40
2018-04-20T08:24:09.677Z,1013.44
2018-04-20T08:25:15.194Z,1013.41
2018-04-20T08:26:20.720Z,1013.45
2018-04-20T08:27:26.249Z,1013.43
2018-04-20T08:28:32.679Z,1013.42
2018-04-20T08:29:37.270Z,1013.43
2018-04-20T08:30:42.789Z,1013.40
2018-04-20T08:31:48.417Z,1013.46
2018-04-20T08:32:53.839Z,1013.46
2018-04-20T08:33:59.352Z,1013.50
2018-04-20T08:35:04.868Z,1013.49
2018-04-20T08:36:10.393Z,1013.46
2018-04-20T08:37:15.906Z,1013.50
2018-04-20T08:38:21.441Z,1013.48
2018-04-20T08:39:26.947Z,1013.48
2018-04-20T08:40:32.467Z,1013.48
2018-04-20T08:41:37.987Z,1013.51
2018-04-20T08:42:43.503Z,1013.51
2018-04-20T08:43:49.024Z,1013.50
2018-04-20T08:44:54.547Z,1013.50
2018-04-20T08:46:00.066Z,1013.51
2018-04-20T08:47:05.591Z,1013.50
2018-04-20T08:48:11.113Z,1013.51
2018-04-20T08:49:16.628Z,1013.49
2018-04-20T08:50:22.148Z,1013.54
2018-04-20T08:51:27.664Z,1013.54
2018-04-20T08:52:33.192Z,1013.48
2018-04-20T08:53:38.713Z,1013.47
2018-04-20T08:54:44.225Z,1013.51
2018-04-20T08:55:49.750Z,1013.46
2018-04-20T08:56:55.384Z,1013.47
2018-04-20T08:58:00.796Z,1013.48
2018-04-20T08:59:06.308Z,1013.49
2018-04-20T09:00:11.856Z,1013.48
2018-04-20T09:01:17.348Z,1013.46
2018-04-20T09:02:22.888Z,1013.49
2018-04-20T09:03:28.385Z,1013.48
2018-04-20T09:04:33.908Z,1013.49
2018-04-20T09:05:39.428Z,1013.50
2018-04-20T09:06:44.943Z,1013.51
2018-04-20T09:07:50.469Z,1013.51
2018-04-20T09:08:55.990Z,1013.55
2018-04-20T09:10:01.511Z,1013.49
2018-04-20T09:11:07.035Z,1013.49
2018-04-20T09:12:12.548Z,1013.51
2018-04-20T09:13:18.068Z,1013.49
2018-04-20T09:14:23.602Z,1013.52
2018-04-20T09:15:29.109Z,1013.48
2018-04-20T09:16:34.636Z,1013.51
2018-04-20T09:17:40.152Z,1013.51
2018-04-20T09:18:45.675Z,1013.48
2018-04-20T09:19:51.196Z,1013.44
2018-04-20T09:20:56.717Z,1013.44
2018-04-20T09:22:02.236Z,1013.41
2018-04-20T09:23:07.754Z,1013.44
2018-04-20T09:24:13.317Z,1013.40
2018-04-20T09:25:18.797Z,1013.43
2018-04-20T09:26:24.318Z,1013.46
2018-04-20T09:27:29.841Z,1013.43
2018-04-20T09:28:35.363Z,1013.41
2018-04-20T09:29:40.886Z,1013.42
2018-04-20T09:30:46.406Z,1013.40
2018-04-20T09:31:51.923Z,1013.42
2018-04-20T09:32:57.449Z,1013.41
2018-04-20T09:34:02.972Z,1013.47
2018-04-20T09:35:08.488Z,1013.45
2018-04-20T09:36:14.018Z,1013.41
2018-04-20T09:37:19.531Z,1013.43
2018-04-20T09:38:25.066Z,1013.37
2018-04-20T09:39:30.570Z,1013.41
2018-04-20T09:40:36.092Z,1013.41
2018-04-20T09:41:41.609Z,1013.42
2018-04-20T09:42:47.132Z,1013.39
2018-04-20T09:43:52.658Z,1013.37
2018-04-20T09:44:58.173Z,1013.34
2018-04-20T09:46:03.700Z,1013.34
2018-04-20T09:47:09.223Z,1013.33
2018-04-20T09:48:14.737Z,1013.36
2018-04-20T09:49:20.258Z,1013.36
2018-04-20T09:50:25.789Z,1013.35
2018-04-20T09:51:31.308Z,1013.36
2018-04-20T09:52:36.828Z,1013.34
2018-04-20T09:53:42.348Z,1013.37
2018-04-20T09:54:47.873Z,1013.40
2018-04-20T09:55:53.391Z,1013.40
2018-04-20T09:56:58.923Z,1013.41
2018-04-20T09:58:04.438Z,1013.38
2018-04-20T09:59:09.958Z,1013.39
2018-04-20T10:00:15.472Z,1013.34
2018-04-20T10:01:20.998Z,1013.34
2018-04-20T10:02:26.518Z,1013.35
2018-04-20T10:03:32.042Z,1013.36
2018-04-20T10:04:37.564Z,1013.33
2018-04-20T10:05:43.083Z,1013.38
2018-04-20T10:06:48.601Z,1013.31
2018-04-20T10:07:54.129Z,1013.33
2018-04-20T10:08:59.664Z,1013.35
2018-04-20T10:10:05.166Z,1013.32
2018-04-20T10:11:10.687Z,1013.33
2018-04-20T10:12:16.219Z,1013.33
2018-04-20T10:13:21.746Z,1013.33
2018-04-20T10:14:27.329Z,1013.32
2018-04-20T10:15:32.862Z,1013.31
2018-04-20T10:16:38.302Z,1013.32
2018-04-20T10:17:43.822Z,1013.32
2018-04-20T10:18:49.350Z,1013.31
2018-04-20T10:19:54.868Z,1013.28
2018-04-20T10:21:00.387Z,1013.23
2018-04-20T10:22:05.909Z,1013.26
2018-04-20T10:23:11.431Z,1013.25
2018-04-20T10:24:16.950Z,1013.28
2018-04-20T10:25:22.481Z,1013.24
2018-04-20T10:26:27.994Z,1013.24
2018-04-20T10:27:33.520Z,1013.26
2018-04-20T10:28:39.041Z,1013.24
2018-04-20T10:29:44.560Z,1013.28
2018-04-20T10:30:50.080Z,1013.28
2018-04-20T10:31:55.602Z,1013.27
2018-04-20T10:33:01.128Z,1013.26
2018-04-20T10:34:06.650Z,1013.22
2018-04-20T10:35:12.172Z,1013.23
2018-04-20T10:36:17.690Z,1013.24
2018-04-20T10:37:23.219Z,1013.19
2018-04-20T10:38:28.740Z,1013.19
2018-04-20T10:39:34.309Z,1013.21
2018-04-20T10:40:39.783Z,1013.20
2018-04-20T10:41:45.303Z,1013.18
2018-04-20T10:42:50.826Z,1013.20
2018-04-20T10:43:56.348Z,1013.20
2018-04-20T10:45:01.871Z,1013.20
2018-04-20T10:46:07.447Z,1013.17
2018-04-20T10:47:12.918Z,1013.18
2018-04-20T10:48:18.445Z,1013.15
2018-04-20T10:49:23.966Z,1013.17
2018-04-20T10:50:29.484Z,1013.17
2018-04-20T10:51:35.011Z,1013.15
2018-04-20T10:52:40.525Z,1013.15
2018-04-20T10:53:46.055Z,1013.13
2018-04-20T10:54:51.575Z,1013.14
2018-04-20T10:55:57.099Z,1013.10
2018-04-20T10:57:02.617Z,1013.14
2018-04-20T10:58:08.144Z,1013.07
2018-04-20T10:59:13.664Z,1013.07
2018-04-20T11:00:19.184Z,1013.07
2018-04-20T11:01:24.711Z,1013.04
2018-04-20T11:02:30.237Z,1013.01
2018-04-20T11:03:35.837Z,1013.03
2018-04-20T11:04:41.284Z,1013.02
2018-04-20T11:05:46.800Z,1013.03
2018-04-20T11:06:52.326Z,1013.00
2018-04-20T11:07:57.848Z,1012.98
2018-04-20T11:09:03.377Z,1012.95
2018-04-20T11:10:08.901Z,1012.99
2018-04-20T11:11:14.414Z,1012.99
2018-04-20T11:12:19.959Z,1012.98
2018-04-20T11:13:25.459Z,1013.00
2018-04-20T11:14:30.995Z,1013.00
2018-04-20T11:15:36.506Z,1012.98
2018-04-20T11:16:42.035Z,1012.95
2018-04-20T11:17:47.563Z,1012.87
2018-04-20T11:18:53.076Z,1012.87
2018-04-20T11:19:58.596Z,1012.90
2018-04-20T11:21:04.129Z,1012.91
2018-04-20T11:22:09.654Z,1012.90
2018-04-20T11:23:15.166Z,1012.87
2018-04-20T11:24:20.705Z,1012.90
2018-04-20T11:25:26.218Z,1012.86
2018-04-20T11:26:31.742Z,1012.83
2018-04-20T11:27:37.269Z,1012.86
2018-04-20T11:28:42.788Z,1012.83
2018-04-20T11:29:48.306Z,1012.90
2018-04-20T11:30:53.836Z,1012.86
2018-04-20T11:31:59.355Z,1012.88
2018-04-20T11:33:04.890Z,1012.85
2018-04-20T11:34:10.402Z,1012.81
2018-04-20T11:35:15.929Z,1012.79
2018-04-20T11:36:21.455Z,1012.80
2018-04-20T11:37:26.977Z,1012.79
2018-04-20T11:38:32.491Z,1012.75
2018-04-20T11:39:38.019Z,1012.77
2018-04-20T11:40:43.536Z,1012.76
2018-04-20T11:41:49.068Z,1012.74
2018-04-20T11:42:54.584Z,1012.70
2018-04-20T11:44:00.112Z,1012.65
2018-04-20T11:45:05.630Z,1012.68
2018-04-20T11:46:11.161Z,1012.69
2018-04-20T11:47:16.742Z,1012.66
2018-04-20T11:48:22.209Z,1012.68
2018-04-20T11:49:27.727Z,1012.61
2018-04-20T11:50:33.257Z,1012.63
2018-04-20T11:51:38.775Z,1012.64
2018-04-20T11:52:44.296Z,1012.59
2018-04-20T11:53:49.887Z,1012.58
2018-04-20T11:54:55.404Z,1012.57
2018-04-20T11:56:00.877Z,1012.57
2018-04-20T11:57:06.394Z,1012.62
2018-04-20T11:58:11.914Z,1012.58
2018-04-20T11:59:17.438Z,1012.59
2018-04-20T12:00:22.962Z,1012.58
2018-04-20T12:01:28.490Z,1012.56
2018-04-20T12:02:34.013Z,1012.59
2018-04-20T12:03:39.537Z,1012.57
2018-04-20T12:04:45.063Z,1012.55
2018-04-20T12:05:50.580Z,1012.55
2018-04-20T12:06:56.112Z,1012.53
2018-04-20T12:08:01.629Z,1012.52
2018-04-20T12:09:07.160Z,1012.54
2018-04-20T12:10:12.687Z,1012.51
2018-04-20T12:11:18.226Z,1012.51
2018-04-20T12:12:23.726Z,1012.55
2018-04-20T12:13:29.257Z,1012.50
2018-04-20T12:14:34.786Z,1012.45
2018-04-20T12:15:40.300Z,1012.47
2018-04-20T12:16:45.971Z,1012.45
2018-04-20T12:17:51.344Z,1012.44
2018-04-20T12:18:56.868Z,1012.42
2018-04-20T12:20:02.403Z,1012.43
2018-04-20T12:21:07.917Z,1012.41
2018-04-20T12:22:13.449Z,1012.37
2018-04-20T12:23:18.978Z,1012.41
2018-04-20T12:24:24.490Z,1012.37
2018-04-20T12:25:30.025Z,1012.42
2018-04-20T12:26:35.540Z,1012.43
2018-04-20T12:27:41.069Z,1012.35
2018-04-20T12:28:46.594Z,1012.37
2018-04-20T12:29:52.119Z,1012.35
2018-04-20T12:30:57.636Z,1012.37
2018-04-20T12:32:03.165Z,1012.32
2018-04-20T12:33:08.683Z,1012.34
2018-04-20T12:34:14.208Z,1012.31
2018-04-20T12:35:19.732Z,1012.30
2018-04-20T12:36:25.270Z,1012.27
2018-04-20T12:37:30.797Z,1012.30
2018-04-20T12:38:36.309Z,1012.29
2018-04-20T12:39:41.830Z,1012.26
2018-04-20T12:40:47.365Z,1012.28
2018-04-20T12:41:52.879Z,1012.25
2018-04-20T12:42:58.407Z,1012.25
2018-04-20T12:44:03.943Z,1012.22
2018-04-20T12:45:09.532Z,1012.19
2018-04-20T12:46:14.985Z,1012.24
2018-04-20T12:47:20.508Z,1012.23
2018-04-20T12:48:26.025Z,1012.21
2018-04-20T12:49:31.548Z,1012.22
2018-04-20T12:50:37.074Z,1012.20
2018-04-20T12:51:42.609Z,1012.21
2018-04-20T12:52:48.192Z,1012.17
2018-04-20T12:53:53.647Z,1012.19
2018-04-20T12:54:59.176Z,1012.13
2018-04-20T12:56:04.695Z,1012.15
2018-04-20T12:57:10.229Z,1012.16
2018-04-20T12:58:15.750Z,1012.12
2018-04-20T12:59:21.270Z,1012.12
2018-04-20T13:00:26.788Z,1012.09
2018-04-20T13:01:32.318Z,1012.11
2018-04-20T13:02:37.839Z,1012.07
2018-04-20T13:03:43.373Z,1012.06
2018-04-20T13:04:48.898Z,1012.05
2018-04-20T13:05:54.425Z,1012.08
2018-04-20T13:06:59.955Z,1012.05
2018-04-20T13:08:05.464Z,1012.05
2018-04-20T13:09:11.038Z,1011.98
2018-04-20T13:10:16.516Z,1012.03
2018-04-20T13:11:22.064Z,1011.94
2018-04-20T13:12:27.565Z,1011.95